TAM4520 SBSP-SBFI
Flight info
| Callsign | TAM4520 |
|---|---|
| Flight time | 1h 19m |
| Altitude | 34000 |
| Route | ASETA UZ152 UPORU |
| Aircraft | A320/M-SDE3FGHIRWY/LB1 |
Departure
| Time | 2026-04-26 16:28 |
|---|---|
| Airport | Congonhas–Deputado Freitas Nobre Airport (SBSP) |
Arrival
| Time | 2026-04-26 17:47 |
|---|---|
| Airport | Cataratas International Airport (SBFI) |
| Time | Latitude | Longitude | Altitude | Speed | Heading |
|---|---|---|---|---|---|
| 2026-04-26 16:08 | -23.62658 | -46.65865 | 2601 ft | 0 kts | 237° |
| 2026-04-26 16:20 | -23.62645 | -46.65845 | 2601 ft | 4 kts | 230° |
| 2026-04-26 16:20 | -23.62611 | -46.65841 | 2601 ft | 2 kts | 147° |
| 2026-04-26 16:20 | -23.62610 | -46.65842 | 2601 ft | 0 kts | 147° |
| 2026-04-26 16:23 | -23.62617 | -46.65836 | 2601 ft | 4 kts | 142° |
| 2026-04-26 16:23 | -23.62639 | -46.65793 | 2601 ft | 9 kts | 117° |
| 2026-04-26 16:23 | -23.62692 | -46.65737 | 2602 ft | 13 kts | 147° |
| 2026-04-26 16:24 | -23.62780 | -46.65676 | 2603 ft | 16 kts | 148° |
| 2026-04-26 16:24 | -23.62878 | -46.65609 | 2603 ft | 17 kts | 147° |
| 2026-04-26 16:24 | -23.62979 | -46.65539 | 2603 ft | 15 kts | 148° |
| 2026-04-26 16:24 | -23.63084 | -46.65503 | 2602 ft | 17 kts | 147° |
| 2026-04-26 16:25 | -23.63185 | -46.65432 | 2602 ft | 18 kts | 148° |
| 2026-04-26 16:25 | -23.63294 | -46.65358 | 2602 ft | 19 kts | 148° |
| 2026-04-26 16:25 | -23.63406 | -46.65280 | 2602 ft | 18 kts | 146° |
| 2026-04-26 16:25 | -23.63500 | -46.65211 | 2600 ft | 13 kts | 137° |
| 2026-04-26 16:26 | -23.63475 | -46.65138 | 2599 ft | 10 kts | 41° |
| 2026-04-26 16:26 | -23.63435 | -46.65116 | 2600 ft | 8 kts | 360° |
| 2026-04-26 16:26 | -23.63400 | -46.65137 | 2603 ft | 0 kts | 326° |
| 2026-04-26 16:27 | -23.63223 | -46.65261 | 2612 ft | 66 kts | 328° |
| 2026-04-26 16:27 | -23.62655 | -46.65656 | 2606 ft | 125 kts | 327° |
| 2026-04-26 16:27 | -23.62106 | -46.66033 | 2620 ft | 155 kts | 328° |
| 2026-04-26 16:27 | -23.61158 | -46.66690 | 3133 ft | 163 kts | 327° |
| 2026-04-26 16:28 | -23.60050 | -46.67793 | 3742 ft | 174 kts | 292° |
| 2026-04-26 16:28 | -23.59929 | -46.68707 | 3909 ft | 189 kts | 271° |
| 2026-04-26 16:28 | -23.59938 | -46.70208 | 4132 ft | 209 kts | 274° |
| 2026-04-26 16:28 | -23.59904 | -46.71851 | 4595 ft | 221 kts | 274° |
| 2026-04-26 16:29 | -23.59861 | -46.73547 | 5291 ft | 226 kts | 274° |
| 2026-04-26 16:29 | -23.59888 | -46.75853 | 6199 ft | 238 kts | 268° |
| 2026-04-26 16:29 | -23.60009 | -46.77107 | 6419 ft | 255 kts | 265° |
| 2026-04-26 16:29 | -23.60355 | -46.79722 | 7228 ft | 268 kts | 264° |
| 2026-04-26 16:30 | -23.60553 | -46.81090 | 7671 ft | 272 kts | 263° |
| 2026-04-26 16:30 | -23.60850 | -46.83139 | 7902 ft | 274 kts | 264° |
| 2026-04-26 16:30 | -23.61045 | -46.85193 | 8173 ft | 273 kts | 276° |
| 2026-04-26 16:30 | -23.60668 | -46.87211 | 8979 ft | 273 kts | 285° |
| 2026-04-26 16:31 | -23.60167 | -46.89215 | 9711 ft | 276 kts | 286° |
| 2026-04-26 16:31 | -23.59647 | -46.91251 | 10284 ft | 286 kts | 285° |
| 2026-04-26 16:31 | -23.59089 | -46.93420 | 10523 ft | 307 kts | 285° |
| 2026-04-26 16:31 | -23.58509 | -46.95664 | 11031 ft | 315 kts | 285° |
| 2026-04-26 16:32 | -23.57900 | -46.98006 | 11663 ft | 319 kts | 285° |
| 2026-04-26 16:32 | -23.57298 | -47.00315 | 12350 ft | 322 kts | 285° |
| 2026-04-26 16:32 | -23.56685 | -47.02668 | 13026 ft | 324 kts | 285° |
| 2026-04-26 16:32 | -23.56071 | -47.05042 | 13665 ft | 328 kts | 285° |
| 2026-04-26 16:33 | -23.55450 | -47.07444 | 14237 ft | 331 kts | 285° |
| 2026-04-26 16:33 | -23.54821 | -47.09873 | 14754 ft | 334 kts | 285° |
| 2026-04-26 16:33 | -23.54187 | -47.12312 | 14905 ft | 335 kts | 285° |
| 2026-04-26 16:33 | -23.53553 | -47.14749 | 14939 ft | 335 kts | 285° |
| 2026-04-26 16:34 | -23.52917 | -47.17189 | 14945 ft | 335 kts | 285° |
| 2026-04-26 16:34 | -23.52284 | -47.19623 | 14941 ft | 334 kts | 285° |
| 2026-04-26 16:34 | -23.51651 | -47.22060 | 14944 ft | 334 kts | 285° |
| 2026-04-26 16:34 | -23.51016 | -47.24498 | 14945 ft | 335 kts | 285° |
| 2026-04-26 16:35 | -23.50380 | -47.26939 | 14943 ft | 335 kts | 285° |
| 2026-04-26 16:35 | -23.49740 | -47.29383 | 15085 ft | 337 kts | 285° |
| 2026-04-26 16:35 | -23.49095 | -47.31849 | 15684 ft | 339 kts | 285° |
| 2026-04-26 16:35 | -23.48448 | -47.34331 | 16268 ft | 342 kts | 284° |
| 2026-04-26 16:36 | -23.47798 | -47.36832 | 16850 ft | 344 kts | 284° |
| 2026-04-26 16:36 | -23.47140 | -47.39350 | 17434 ft | 347 kts | 285° |
| 2026-04-26 16:36 | -23.46473 | -47.41888 | 17974 ft | 350 kts | 285° |
| 2026-04-26 16:36 | -23.45801 | -47.44452 | 18481 ft | 353 kts | 285° |
| 2026-04-26 16:37 | -23.45125 | -47.47030 | 18985 ft | 355 kts | 285° |
| 2026-04-26 16:37 | -23.44445 | -47.49622 | 19492 ft | 357 kts | 285° |
| 2026-04-26 16:37 | -23.43761 | -47.52226 | 20010 ft | 358 kts | 285° |
| 2026-04-26 16:37 | -23.43074 | -47.54836 | 20527 ft | 360 kts | 285° |
| 2026-04-26 16:38 | -23.42382 | -47.57458 | 21036 ft | 361 kts | 285° |
| 2026-04-26 16:38 | -23.41685 | -47.60098 | 21533 ft | 363 kts | 285° |
| 2026-04-26 16:38 | -23.40986 | -47.62746 | 22018 ft | 365 kts | 285° |
| 2026-04-26 16:38 | -23.40281 | -47.65409 | 22495 ft | 367 kts | 285° |
| 2026-04-26 16:39 | -23.39573 | -47.68089 | 22980 ft | 369 kts | 285° |
| 2026-04-26 16:39 | -23.38864 | -47.70779 | 23456 ft | 371 kts | 285° |
| 2026-04-26 16:39 | -23.38150 | -47.73489 | 23856 ft | 373 kts | 285° |
| 2026-04-26 16:39 | -23.37432 | -47.76206 | 24248 ft | 375 kts | 285° |
| 2026-04-26 16:40 | -23.36709 | -47.78932 | 24643 ft | 376 kts | 285° |
| 2026-04-26 16:40 | -23.35980 | -47.81671 | 25045 ft | 377 kts | 285° |
| 2026-04-26 16:40 | -23.35250 | -47.84418 | 25444 ft | 378 kts | 285° |
| 2026-04-26 16:40 | -23.34520 | -47.87170 | 25824 ft | 379 kts | 285° |
| 2026-04-26 16:41 | -23.33788 | -47.89933 | 26195 ft | 381 kts | 285° |
| 2026-04-26 16:41 | -23.33052 | -47.92708 | 26562 ft | 383 kts | 285° |
| 2026-04-26 16:41 | -23.32322 | -47.95455 | 26915 ft | 384 kts | 285° |
| 2026-04-26 16:41 | -23.31578 | -47.98252 | 27279 ft | 386 kts | 285° |
| 2026-04-26 16:42 | -23.30828 | -48.01065 | 27599 ft | 388 kts | 285° |
| 2026-04-26 16:42 | -23.30076 | -48.03886 | 27934 ft | 390 kts | 285° |
| 2026-04-26 16:42 | -23.29329 | -48.06724 | 28275 ft | 391 kts | 283° |
| 2026-04-26 16:42 | -23.28908 | -48.09647 | 28630 ft | 392 kts | 273° |
| 2026-04-26 16:43 | -23.29006 | -48.12622 | 28975 ft | 395 kts | 263° |
| 2026-04-26 16:43 | -23.29440 | -48.15582 | 29320 ft | 398 kts | 262° |
| 2026-04-26 16:43 | -23.29883 | -48.18558 | 29681 ft | 399 kts | 262° |
| 2026-04-26 16:43 | -23.30327 | -48.21546 | 30039 ft | 401 kts | 262° |
| 2026-04-26 16:44 | -23.30771 | -48.24544 | 30335 ft | 403 kts | 263° |
| 2026-04-26 16:44 | -23.31215 | -48.27559 | 30625 ft | 405 kts | 263° |
| 2026-04-26 16:44 | -23.31660 | -48.30591 | 30894 ft | 407 kts | 263° |
| 2026-04-26 16:44 | -23.32106 | -48.33638 | 31184 ft | 409 kts | 263° |
| 2026-04-26 16:45 | -23.32552 | -48.36686 | 31571 ft | 407 kts | 263° |
| 2026-04-26 16:45 | -23.32996 | -48.39725 | 31989 ft | 406 kts | 262° |
| 2026-04-26 16:45 | -23.33715 | -48.42704 | 32392 ft | 409 kts | 253° |
| 2026-04-26 16:45 | -23.34770 | -48.45577 | 32809 ft | 409 kts | 251° |
| 2026-04-26 16:46 | -23.35837 | -48.48435 | 33239 ft | 407 kts | 251° |
| 2026-04-26 16:46 | -23.36902 | -48.51290 | 33663 ft | 406 kts | 252° |
| 2026-04-26 16:46 | -23.37963 | -48.54146 | 33880 ft | 407 kts | 252° |
| 2026-04-26 16:46 | -23.39014 | -48.56971 | 33920 ft | 398 kts | 252° |
| 2026-04-26 16:47 | -23.41064 | -48.62501 | 33917 ft | 392 kts | 252° |
| 2026-04-26 16:47 | -23.43088 | -48.67999 | 33918 ft | 391 kts | 252° |
| 2026-04-26 16:48 | -23.45113 | -48.73489 | 33921 ft | 391 kts | 252° |
| 2026-04-26 16:48 | -23.47135 | -48.78978 | 33921 ft | 391 kts | 252° |
| 2026-04-26 16:49 | -23.49158 | -48.84474 | 33924 ft | 391 kts | 252° |
| 2026-04-26 16:49 | -23.51188 | -48.89976 | 33928 ft | 391 kts | 252° |
| 2026-04-26 16:50 | -23.53236 | -48.95559 | 33919 ft | 405 kts | 252° |
| 2026-04-26 16:50 | -23.55360 | -49.01391 | 33919 ft | 422 kts | 252° |
| 2026-04-26 16:51 | -23.57543 | -49.07352 | 33915 ft | 429 kts | 252° |
| 2026-04-26 16:51 | -23.59778 | -49.13446 | 33917 ft | 431 kts | 252° |
| 2026-04-26 16:52 | -23.61627 | -49.18500 | 33918 ft | 432 kts | 252° |
| 2026-04-26 16:52 | -23.64210 | -49.25567 | 33918 ft | 432 kts | 252° |
| 2026-04-26 16:53 | -23.66429 | -49.31663 | 33923 ft | 432 kts | 252° |
| 2026-04-26 16:53 | -23.68644 | -49.37762 | 33928 ft | 433 kts | 252° |
| 2026-04-26 16:54 | -23.70859 | -49.43863 | 33930 ft | 433 kts | 252° |
| 2026-04-26 16:54 | -23.73080 | -49.49968 | 33931 ft | 433 kts | 252° |
| 2026-04-26 16:55 | -23.75285 | -49.56074 | 33941 ft | 432 kts | 252° |
| 2026-04-26 16:55 | -23.77487 | -49.62179 | 33938 ft | 432 kts | 252° |
| 2026-04-26 16:56 | -23.80783 | -49.71332 | 33931 ft | 432 kts | 252° |
| 2026-04-26 16:57 | -23.82977 | -49.77432 | 33937 ft | 432 kts | 252° |
| 2026-04-26 16:57 | -23.86269 | -49.86584 | 33932 ft | 432 kts | 252° |
| 2026-04-26 16:58 | -23.88102 | -49.91702 | 33930 ft | 432 kts | 252° |
| 2026-04-26 16:59 | -23.91728 | -50.01867 | 33940 ft | 432 kts | 252° |
| 2026-04-26 17:00 | -23.96090 | -50.14112 | 33940 ft | 432 kts | 252° |
| 2026-04-26 17:00 | -23.99354 | -50.23299 | 33946 ft | 432 kts | 252° |
| 2026-04-26 17:01 | -24.01523 | -50.29422 | 33948 ft | 432 kts | 252° |
| 2026-04-26 17:01 | -24.03686 | -50.35548 | 33946 ft | 432 kts | 253° |
| 2026-04-26 17:02 | -24.05846 | -50.41680 | 33946 ft | 432 kts | 253° |
| 2026-04-26 17:02 | -24.07998 | -50.47805 | 33954 ft | 431 kts | 252° |
| 2026-04-26 17:03 | -24.10152 | -50.53930 | 33949 ft | 431 kts | 252° |
| 2026-04-26 17:03 | -24.12306 | -50.60054 | 33948 ft | 431 kts | 252° |
| 2026-04-26 17:04 | -24.14455 | -50.66170 | 33950 ft | 431 kts | 253° |
| 2026-04-26 17:04 | -24.16595 | -50.72297 | 33949 ft | 430 kts | 253° |
| 2026-04-26 17:05 | -24.18740 | -50.78418 | 33948 ft | 430 kts | 253° |
| 2026-04-26 17:05 | -24.20864 | -50.84500 | 33946 ft | 430 kts | 253° |
| 2026-04-26 17:06 | -24.22996 | -50.90624 | 33949 ft | 430 kts | 253° |
| 2026-04-26 17:06 | -24.25131 | -50.96746 | 33951 ft | 430 kts | 253° |
| 2026-04-26 17:07 | -24.27258 | -51.02864 | 33962 ft | 430 kts | 253° |
| 2026-04-26 17:07 | -24.29383 | -51.08986 | 33957 ft | 429 kts | 253° |
| 2026-04-26 17:08 | -24.31503 | -51.15101 | 33952 ft | 429 kts | 253° |
| 2026-04-26 17:08 | -24.33612 | -51.21215 | 33947 ft | 429 kts | 253° |
| 2026-04-26 17:09 | -24.35023 | -51.25304 | 33947 ft | 429 kts | 253° |
| 2026-04-26 17:09 | -24.37828 | -51.33446 | 33954 ft | 429 kts | 253° |
| 2026-04-26 17:10 | -24.39928 | -51.39564 | 33952 ft | 429 kts | 253° |
| 2026-04-26 17:10 | -24.42026 | -51.45687 | 33949 ft | 429 kts | 253° |
| 2026-04-26 17:11 | -24.44123 | -51.51808 | 33954 ft | 429 kts | 253° |
| 2026-04-26 17:11 | -24.46218 | -51.57927 | 33967 ft | 428 kts | 253° |
| 2026-04-26 17:12 | -24.49357 | -51.67112 | 33963 ft | 428 kts | 253° |
| 2026-04-26 17:13 | -24.52489 | -51.76297 | 33967 ft | 428 kts | 253° |
| 2026-04-26 17:14 | -24.55253 | -51.84459 | 33980 ft | 428 kts | 253° |
| 2026-04-26 17:14 | -24.58377 | -51.93661 | 33979 ft | 429 kts | 253° |
| 2026-04-26 17:15 | -24.61490 | -52.02876 | 33981 ft | 429 kts | 253° |
| 2026-04-26 17:16 | -24.63557 | -52.09028 | 33972 ft | 430 kts | 253° |
| 2026-04-26 17:16 | -24.65622 | -52.15159 | 33964 ft | 431 kts | 252° |
| 2026-04-26 17:17 | -24.67705 | -52.21348 | 33972 ft | 432 kts | 252° |
| 2026-04-26 17:17 | -24.69780 | -52.27544 | 33974 ft | 432 kts | 253° |
| 2026-04-26 17:18 | -24.71860 | -52.33751 | 33969 ft | 433 kts | 252° |
| 2026-04-26 17:18 | -24.73930 | -52.39977 | 33970 ft | 434 kts | 253° |
| 2026-04-26 17:19 | -24.77043 | -52.49336 | 33970 ft | 434 kts | 253° |
| 2026-04-26 17:19 | -24.79128 | -52.55573 | 33976 ft | 435 kts | 252° |
| 2026-04-26 17:20 | -24.80876 | -52.60803 | 33982 ft | 435 kts | 253° |
| 2026-04-26 17:20 | -24.83286 | -52.68070 | 33979 ft | 435 kts | 253° |
| 2026-04-26 17:21 | -24.85354 | -52.74324 | 33983 ft | 435 kts | 253° |
| 2026-04-26 17:21 | -24.87416 | -52.80571 | 33965 ft | 429 kts | 253° |
| 2026-04-26 17:22 | -24.88426 | -52.83621 | 33677 ft | 419 kts | 253° |
| 2026-04-26 17:22 | -24.89414 | -52.86610 | 33234 ft | 413 kts | 253° |
| 2026-04-26 17:22 | -24.90387 | -52.89568 | 32775 ft | 408 kts | 253° |
| 2026-04-26 17:22 | -24.91344 | -52.92492 | 32330 ft | 403 kts | 253° |
| 2026-04-26 17:23 | -24.92290 | -52.95381 | 31886 ft | 399 kts | 253° |
| 2026-04-26 17:23 | -24.93230 | -52.98237 | 31455 ft | 394 kts | 253° |
| 2026-04-26 17:23 | -24.94161 | -53.01060 | 31055 ft | 390 kts | 253° |
| 2026-04-26 17:23 | -24.95076 | -53.03846 | 30618 ft | 386 kts | 253° |
| 2026-04-26 17:24 | -24.95981 | -53.06615 | 30213 ft | 381 kts | 253° |
| 2026-04-26 17:24 | -24.96876 | -53.09351 | 29778 ft | 377 kts | 253° |
| 2026-04-26 17:24 | -24.97758 | -53.12054 | 29388 ft | 371 kts | 253° |
| 2026-04-26 17:24 | -24.98623 | -53.14712 | 29016 ft | 366 kts | 253° |
| 2026-04-26 17:25 | -24.99478 | -53.17337 | 28653 ft | 362 kts | 253° |
| 2026-04-26 17:25 | -25.00324 | -53.19931 | 28291 ft | 358 kts | 253° |
| 2026-04-26 17:25 | -25.01162 | -53.22497 | 27934 ft | 355 kts | 253° |
| 2026-04-26 17:25 | -25.02000 | -53.25058 | 27573 ft | 355 kts | 253° |
| 2026-04-26 17:26 | -25.02837 | -53.27614 | 27208 ft | 353 kts | 253° |
| 2026-04-26 17:26 | -25.03666 | -53.30153 | 26847 ft | 351 kts | 254° |
| 2026-04-26 17:26 | -25.04490 | -53.32681 | 26482 ft | 350 kts | 253° |
| 2026-04-26 17:26 | -25.05314 | -53.35209 | 26097 ft | 351 kts | 253° |
| 2026-04-26 17:27 | -25.06137 | -53.37743 | 25727 ft | 351 kts | 254° |
| 2026-04-26 17:27 | -25.06958 | -53.40271 | 25340 ft | 349 kts | 254° |
| 2026-04-26 17:27 | -25.07779 | -53.42797 | 24949 ft | 350 kts | 254° |
| 2026-04-26 17:27 | -25.08596 | -53.45316 | 24582 ft | 349 kts | 254° |
| 2026-04-26 17:28 | -25.09402 | -53.47804 | 24185 ft | 349 kts | 254° |
| 2026-04-26 17:28 | -25.10230 | -53.50360 | 23782 ft | 350 kts | 254° |
| 2026-04-26 17:28 | -25.11039 | -53.52850 | 23336 ft | 348 kts | 254° |
| 2026-04-26 17:28 | -25.11852 | -53.55353 | 22913 ft | 345 kts | 254° |
| 2026-04-26 17:29 | -25.12658 | -53.57837 | 22507 ft | 342 kts | 254° |
| 2026-04-26 17:29 | -25.13195 | -53.59495 | 22238 ft | 339 kts | 254° |
| 2026-04-26 17:29 | -25.14237 | -53.62715 | 21710 ft | 333 kts | 254° |
| 2026-04-26 17:29 | -25.15011 | -53.65115 | 21286 ft | 331 kts | 254° |
| 2026-04-26 17:30 | -25.15779 | -53.67502 | 20859 ft | 329 kts | 254° |
| 2026-04-26 17:30 | -25.16539 | -53.69875 | 20437 ft | 326 kts | 254° |
| 2026-04-26 17:30 | -25.17291 | -53.72230 | 20021 ft | 325 kts | 254° |
| 2026-04-26 17:30 | -25.18040 | -53.74575 | 19608 ft | 323 kts | 254° |
| 2026-04-26 17:31 | -25.18787 | -53.76908 | 19181 ft | 322 kts | 254° |
| 2026-04-26 17:31 | -25.19531 | -53.79232 | 18760 ft | 320 kts | 254° |
| 2026-04-26 17:31 | -25.20272 | -53.81545 | 18347 ft | 319 kts | 254° |
| 2026-04-26 17:31 | -25.21011 | -53.83846 | 17895 ft | 317 kts | 254° |
| 2026-04-26 17:32 | -25.21747 | -53.86133 | 17467 ft | 315 kts | 254° |
| 2026-04-26 17:32 | -25.22455 | -53.88403 | 17061 ft | 310 kts | 257° |
| 2026-04-26 17:32 | -25.22982 | -53.90703 | 16663 ft | 307 kts | 258° |
| 2026-04-26 17:32 | -25.23503 | -53.92989 | 16262 ft | 307 kts | 258° |
| 2026-04-26 17:33 | -25.24029 | -53.95288 | 15854 ft | 310 kts | 258° |
| 2026-04-26 17:33 | -25.24561 | -53.97604 | 15440 ft | 311 kts | 258° |
| 2026-04-26 17:33 | -25.25087 | -53.99869 | 15045 ft | 297 kts | 258° |
| 2026-04-26 17:34 | -25.26073 | -54.04103 | 14289 ft | 273 kts | 258° |
| 2026-04-26 17:34 | -25.26534 | -54.06107 | 13937 ft | 268 kts | 258° |
| 2026-04-26 17:34 | -25.26988 | -54.08107 | 13558 ft | 269 kts | 258° |
| 2026-04-26 17:34 | -25.27442 | -54.10108 | 13183 ft | 268 kts | 258° |
| 2026-04-26 17:35 | -25.27895 | -54.12103 | 12821 ft | 267 kts | 258° |
| 2026-04-26 17:35 | -25.28346 | -54.14094 | 12460 ft | 267 kts | 258° |
| 2026-04-26 17:35 | -25.28796 | -54.16087 | 12104 ft | 269 kts | 257° |
| 2026-04-26 17:35 | -25.29259 | -54.18121 | 11732 ft | 277 kts | 257° |
| 2026-04-26 17:36 | -25.29738 | -54.20222 | 11348 ft | 286 kts | 257° |
| 2026-04-26 17:36 | -25.30232 | -54.22393 | 10974 ft | 296 kts | 258° |
| 2026-04-26 17:36 | -25.30737 | -54.24600 | 10849 ft | 296 kts | 258° |
| 2026-04-26 17:36 | -25.31236 | -54.26772 | 10498 ft | 288 kts | 257° |
| 2026-04-26 17:37 | -25.31724 | -54.28913 | 9973 ft | 287 kts | 257° |
| 2026-04-26 17:37 | -25.32202 | -54.31014 | 9732 ft | 275 kts | 258° |
| 2026-04-26 17:37 | -25.32664 | -54.33039 | 9296 ft | 270 kts | 257° |
| 2026-04-26 17:38 | -25.33573 | -54.37030 | 8342 ft | 263 kts | 257° |
| 2026-04-26 17:38 | -25.34005 | -54.38949 | 7964 ft | 251 kts | 258° |
| 2026-04-26 17:38 | -25.34426 | -54.40823 | 7628 ft | 251 kts | 258° |
| 2026-04-26 17:38 | -25.34842 | -54.42665 | 7297 ft | 250 kts | 257° |
| 2026-04-26 17:39 | -25.35263 | -54.44528 | 6959 ft | 250 kts | 258° |
| 2026-04-26 17:39 | -25.35683 | -54.46398 | 6626 ft | 250 kts | 257° |
| 2026-04-26 17:39 | -25.36104 | -54.48265 | 6294 ft | 251 kts | 257° |
| 2026-04-26 17:39 | -25.36526 | -54.50136 | 5946 ft | 251 kts | 257° |
| 2026-04-26 17:40 | -25.36947 | -54.51999 | 5610 ft | 250 kts | 257° |
| 2026-04-26 17:40 | -25.37231 | -54.53256 | 5396 ft | 249 kts | 257° |
| 2026-04-26 17:40 | -25.37784 | -54.55705 | 4958 ft | 247 kts | 257° |
| 2026-04-26 17:40 | -25.38236 | -54.57503 | 4676 ft | 236 kts | 248° |
| 2026-04-26 17:41 | -25.39033 | -54.58987 | 4605 ft | 216 kts | 232° |
| 2026-04-26 17:41 | -25.40103 | -54.60065 | 4517 ft | 203 kts | 216° |
| 2026-04-26 17:41 | -25.41351 | -54.60749 | 4432 ft | 199 kts | 204° |
| 2026-04-26 17:41 | -25.42598 | -54.61259 | 4361 ft | 185 kts | 205° |
| 2026-04-26 17:42 | -25.43765 | -54.61741 | 4252 ft | 173 kts | 204° |
| 2026-04-26 17:42 | -25.44856 | -54.62193 | 4167 ft | 161 kts | 205° |
| 2026-04-26 17:42 | -25.45865 | -54.62611 | 4090 ft | 150 kts | 205° |
| 2026-04-26 17:42 | -25.46854 | -54.62967 | 4015 ft | 152 kts | 194° |
| 2026-04-26 17:43 | -25.47932 | -54.62926 | 3743 ft | 160 kts | 168° |
| 2026-04-26 17:43 | -25.48926 | -54.62348 | 3529 ft | 166 kts | 140° |
| 2026-04-26 17:43 | -25.49699 | -54.61396 | 3322 ft | 167 kts | 134° |
| 2026-04-26 17:43 | -25.50453 | -54.60432 | 3110 ft | 164 kts | 135° |
| 2026-04-26 17:44 | -25.51192 | -54.59485 | 2903 ft | 162 kts | 134° |
| 2026-04-26 17:44 | -25.51928 | -54.58544 | 2691 ft | 160 kts | 134° |
| 2026-04-26 17:44 | -25.52654 | -54.57614 | 2493 ft | 158 kts | 135° |
| 2026-04-26 17:44 | -25.53360 | -54.56709 | 2283 ft | 153 kts | 136° |
| 2026-04-26 17:45 | -25.54052 | -54.55823 | 2083 ft | 151 kts | 135° |
| 2026-04-26 17:45 | -25.54734 | -54.54949 | 1882 ft | 149 kts | 133° |
| 2026-04-26 17:45 | -25.55416 | -54.54077 | 1702 ft | 150 kts | 133° |
| 2026-04-26 17:45 | -25.56095 | -54.53207 | 1499 ft | 150 kts | 133° |
| 2026-04-26 17:46 | -25.56773 | -54.52337 | 1302 ft | 147 kts | 132° |
| 2026-04-26 17:46 | -25.57439 | -54.51483 | 1112 ft | 146 kts | 132° |
| 2026-04-26 17:46 | -25.58099 | -54.50637 | 925 ft | 145 kts | 132° |
| 2026-04-26 17:46 | -25.58747 | -54.49798 | 829 ft | 143 kts | 132° |
| 2026-04-26 17:47 | -25.59373 | -54.49002 | 800 ft | 122 kts | 131° |
| 2026-04-26 17:47 | -25.59546 | -54.48779 | 799 ft | 105 kts | 130° |
| 2026-04-26 17:47 | -25.60043 | -54.48141 | 800 ft | 35 kts | 131° |
| 2026-04-26 17:47 | -25.60144 | -54.48011 | 801 ft | 13 kts | 132° |
| 2026-04-26 17:48 | -25.60220 | -54.47964 | 800 ft | 12 kts | 159° |
| 2026-04-26 17:48 | -25.60210 | -54.47920 | 801 ft | 8 kts | 327° |
| 2026-04-26 17:48 | -25.60169 | -54.47978 | 800 ft | 12 kts | 311° |
| 2026-04-26 17:48 | -25.60105 | -54.48060 | 801 ft | 16 kts | 310° |
| 2026-04-26 17:49 | -25.60022 | -54.48169 | 799 ft | 21 kts | 310° |
| 2026-04-26 17:49 | -25.59913 | -54.48307 | 797 ft | 25 kts | 311° |
| 2026-04-26 17:49 | -25.59805 | -54.48446 | 795 ft | 20 kts | 309° |
| 2026-04-26 17:49 | -25.59806 | -54.48494 | 795 ft | 2 kts | 204° |
| 2026-04-26 17:50 | -25.59827 | -54.48508 | 796 ft | 5 kts | 213° |
| 2026-04-26 17:50 | -25.59849 | -54.48528 | 797 ft | 5 kts | 228° |
| 2026-04-26 17:50 | -25.59837 | -54.48576 | 798 ft | 10 kts | 310° |
| 2026-04-26 17:50 | -25.59775 | -54.48658 | 798 ft | 17 kts | 311° |
| 2026-04-26 17:51 | -25.59701 | -54.48753 | 798 ft | 9 kts | 308° |
| 2026-04-26 17:51 | -25.59710 | -54.48785 | 798 ft | 4 kts | 229° |
| 2026-04-26 17:51 | -25.59728 | -54.48804 | 798 ft | 2 kts | 221° |
| 2026-04-26 17:51 | -25.59731 | -54.48807 | 798 ft | 0 kts | 221° |